Terminal Aerodrome Forecast
Issued by NWS Cleveland, OH

Home | Current Version | Previous Version | Graphics & Text | Print | Product List | Glossary On
Versions: 1 2 3 4 5 6 7 8 9 10 11 12 13 14 15 16 17 18 19 20 21 22
000
FTUS41 KCLE 251559 AAA
TAFERI
TAF AMD
KERI 251559Z 2516/2612 01010KT P6SM SCT025 BKN035
      TEMPO 2516/2519 BKN025
     FM251900 01010KT P6SM BKN035
     FM252100 01010KT P6SM SCT035
     FM260100 06006KT P6SM SCT035
     FM260500 12006KT P6SM SKC=

USA.gov is the U.S. government's official web portal to all federal, state and local government web resources and services.